createdAt,value
2023-01-18T00:01:22.699Z,60553.06
2023-01-18T00:03:51.027Z,60556.28
2023-01-18T00:06:20.701Z,60555.75
2023-01-18T00:08:49.028Z,60566.09
2023-01-18T00:11:19.067Z,60557.19
2023-01-18T00:13:48.290Z,60556.53
2023-01-18T00:16:19.548Z,60551.47
2023-01-18T00:18:53.460Z,60556.78
2023-01-18T00:21:23.576Z,60557.97
2023-01-18T00:23:52.160Z,60560.91
2023-01-18T00:26:20.875Z,60560.91
2023-01-18T00:28:49.134Z,60561.59
2023-01-18T00:31:22.169Z,60567.72
2023-01-18T00:33:51.972Z,60557.84
2023-01-18T00:36:22.163Z,60568.75
2023-01-18T00:38:52.345Z,60564.22
2023-01-18T00:41:21.463Z,60563.19
2023-01-18T00:43:49.420Z,60569.28
2023-01-18T00:46:20.119Z,60552.53
2023-01-18T00:48:49.227Z,60544.56
2023-01-18T00:51:20.200Z,60545.09
2023-01-18T00:53:50.312Z,60555.84
2023-01-18T00:56:21.594Z,60560.38
2023-01-18T00:58:50.591Z,60556.13
2023-01-18T01:01:19.086Z,60546.16
2023-01-18T01:04:05.216Z,60555.75
2023-01-18T01:06:47.476Z,60565.03
2023-01-18T01:09:21.687Z,60548.03
2023-01-18T01:12:08.514Z,60548.28
2023-01-18T01:14:56.973Z,60551.47
2023-01-18T01:17:42.820Z,60545.63
2023-01-18T01:20:30.024Z,60559.31
2023-01-18T01:23:15.771Z,60557.59
2023-01-18T01:26:03.011Z,60559.06
2023-01-18T01:28:32.338Z,60552.53
2023-01-18T01:31:02.132Z,60540.84
2023-01-18T01:33:31.765Z,60552.94
2023-01-18T01:36:02.221Z,60546.56
2023-01-18T01:38:31.287Z,60544.31
2023-01-18T01:41:07.483Z,60548.28
2023-01-18T01:43:43.070Z,60543.63
2023-01-18T01:46:23.380Z,60552.53
2023-01-18T01:49:04.797Z,60564.53
2023-01-18T01:51:35.627Z,60545.09
2023-01-18T01:54:08.177Z,60558.28
2023-01-18T01:56:38.274Z,60553.59
2023-01-18T01:59:07.227Z,60550.94
2023-01-18T02:01:36.218Z,60558.28
2023-01-18T02:04:05.472Z,60546.16
2023-01-18T02:06:38.535Z,60542.97
2023-01-18T02:09:09.792Z,60548.03
2023-01-18T02:11:40.501Z,60545.75
2023-01-18T02:14:12.040Z,60545.09
2023-01-18T02:16:57.461Z,60548.28
2023-01-18T02:20:00.519Z,60568.91
2023-01-18T02:22:46.197Z,60545.09
2023-01-18T02:26:17.925Z,60548.28
2023-01-18T02:28:55.164Z,60547.22
2023-01-18T02:31:28.253Z,60546.16
2023-01-18T02:34:05.518Z,60560.38
2023-01-18T02:36:43.239Z,60557.84
2023-01-18T02:39:23.274Z,60556.53
2023-01-18T02:42:16.385Z,60540.84
2023-01-18T02:45:05.553Z,60544.03
2023-01-18T02:47:35.270Z,60540.84
2023-01-18T02:50:05.002Z,60558.28
2023-01-18T02:52:41.130Z,60550.41
2023-01-18T02:55:18.106Z,60545.09
2023-01-18T02:57:47.695Z,60562.91
2023-01-18T03:00:20.668Z,60564.66
2023-01-18T03:02:51.688Z,60554.00
2023-01-18T03:05:20.508Z,60548.69
2023-01-18T03:07:54.703Z,60555.06
2023-01-18T03:10:25.745Z,60540.31
2023-01-18T03:13:00.176Z,60540.06
2023-01-18T03:15:40.425Z,60541.91
2023-01-18T03:18:19.106Z,60532.34
2023-01-18T03:20:54.503Z,60546.97
2023-01-18T03:23:39.983Z,60544.31
2023-01-18T03:26:11.526Z,60546.56
2023-01-18T03:29:01.575Z,60546.03
2023-01-18T03:31:56.526Z,60534.22
2023-01-18T03:34:30.115Z,60542.84
2023-01-18T03:37:02.809Z,60543.78
2023-01-18T03:39:36.198Z,60547.63
2023-01-18T03:42:12.301Z,60550.69
2023-01-18T03:44:49.004Z,60546.56
2023-01-18T03:47:18.912Z,60549.09
2023-01-18T03:49:47.522Z,60546.44
2023-01-18T03:52:20.167Z,60552.28
2023-01-18T03:55:01.104Z,60539.50
2023-01-18T03:57:36.308Z,60554.66
2023-01-18T04:00:06.836Z,60550.16
2023-01-18T04:02:44.708Z,60547.63
2023-01-18T04:05:13.823Z,60550.03
2023-01-18T04:07:42.392Z,60552.94
2023-01-18T04:10:13.050Z,60547.22
2023-01-18T04:12:41.313Z,60557.31
2023-01-18T04:15:11.145Z,60547.75
2023-01-18T04:17:40.967Z,60560.38
2023-01-18T04:20:11.321Z,60545.91
2023-01-18T04:22:39.633Z,60557.44
2023-01-18T04:25:08.961Z,60547.09
2023-01-18T04:27:37.319Z,60535.94
2023-01-18T04:30:07.008Z,60541.25
2023-01-18T04:32:35.347Z,60555.47
2023-01-18T04:35:05.754Z,60559.72
2023-01-18T04:37:34.550Z,60558.94
2023-01-18T04:40:03.105Z,60557.59
2023-01-18T04:42:31.528Z,60545.91
2023-01-18T04:45:01.032Z,60545.50
2023-01-18T04:47:30.062Z,60558.78
2023-01-18T04:49:58.533Z,60551.88
2023-01-18T04:52:32.180Z,60565.03
2023-01-18T04:55:00.631Z,60556.13
2023-01-18T04:57:28.967Z,60547.75
2023-01-18T04:59:57.267Z,60554.66
2023-01-18T05:02:25.702Z,60554.13
2023-01-18T05:04:54.107Z,60541.91
2023-01-18T05:07:30.651Z,60539.25
2023-01-18T05:09:59.017Z,60549.09
2023-01-18T05:12:27.487Z,60535.66
2023-01-18T05:14:55.958Z,60542.84
2023-01-18T05:17:27.465Z,60534.31
2023-01-18T05:19:56.280Z,60539.78
2023-01-18T05:22:25.618Z,60547.22
2023-01-18T05:24:55.788Z,60550.69
2023-01-18T05:27:24.162Z,60552.81
2023-01-18T05:29:52.882Z,60542.44
2023-01-18T05:32:21.217Z,60538.97
2023-01-18T05:34:49.616Z,60538.19
2023-01-18T05:37:18.104Z,60537.78
2023-01-18T05:39:46.436Z,60548.69
2023-01-18T05:42:16.111Z,60591.25
2023-01-18T05:44:44.469Z,60614.66
2023-01-18T05:47:13.029Z,60624.25
2023-01-18T05:49:42.052Z,60643.94
2023-01-18T05:52:10.501Z,60649.78
2023-01-18T05:54:38.849Z,60664.56
2023-01-18T05:57:07.145Z,60670.44
2023-01-18T05:59:36.820Z,60643.00
2023-01-18T06:02:05.566Z,60649.50
2023-01-18T06:04:34.046Z,60613.59
2023-01-18T06:07:02.384Z,60592.44
2023-01-18T06:09:30.996Z,60583.25
2023-01-18T06:11:59.422Z,60564.22
2023-01-18T06:14:27.701Z,60567.44
2023-01-18T06:16:57.380Z,60579.16
2023-01-18T06:19:25.812Z,60583.78
2023-01-18T06:21:54.453Z,60584.22
2023-01-18T06:24:22.811Z,60572.63
2023-01-18T06:26:51.130Z,60560.50
2023-01-18T06:29:19.594Z,60558.28
2023-01-18T06:31:48.006Z,60553.06
2023-01-18T06:34:18.026Z,60560.50
2023-01-18T06:36:46.398Z,60566.09
2023-01-18T06:39:14.818Z,60559.47
2023-01-18T06:41:43.116Z,60567.19
2023-01-18T06:44:11.928Z,60567.19
2023-01-18T06:46:40.308Z,60562.91
2023-01-18T06:49:08.882Z,60574.63
2023-01-18T06:51:38.946Z,60554.00
2023-01-18T06:54:08.222Z,60542.97
2023-01-18T06:56:36.991Z,60544.44
2023-01-18T06:59:07.662Z,60557.19
2023-01-18T07:01:36.854Z,60554.66
2023-01-18T07:04:06.018Z,60543.22
2023-01-18T07:06:36.609Z,60552.53
2023-01-18T07:09:08.158Z,60558.94
2023-01-18T07:11:36.996Z,60559.31
2023-01-18T07:14:05.329Z,60551.88
2023-01-18T07:16:33.694Z,60542.31
2023-01-18T07:19:02.004Z,60550.28
2023-01-18T07:21:30.469Z,60559.31
2023-01-18T07:24:00.398Z,60549.34
2023-01-18T07:26:30.149Z,60550.16
2023-01-18T07:28:58.590Z,60554.13
2023-01-18T07:31:27.629Z,60558.78
2023-01-18T07:33:56.037Z,60567.19
2023-01-18T07:36:24.375Z,60559.31
2023-01-18T07:38:52.759Z,60568.75
2023-01-18T07:41:23.071Z,60561.59
2023-01-18T07:43:54.396Z,60557.59
2023-01-18T07:46:23.612Z,60564.38
2023-01-18T07:48:52.624Z,60555.19
2023-01-18T07:51:22.671Z,60567.72
2023-01-18T07:53:55.278Z,60571.03
2023-01-18T07:56:25.276Z,60581.00
2023-01-18T07:58:55.703Z,60569.56
2023-01-18T08:01:25.379Z,60574.63
2023-01-18T08:03:54.737Z,60579.94
2023-01-18T08:06:25.846Z,60577.41
2023-01-18T08:08:56.691Z,60584.44
2023-01-18T08:11:25.052Z,60571.69
2023-01-18T08:13:54.795Z,60571.03
2023-01-18T08:16:24.442Z,60581.25
2023-01-18T08:18:52.848Z,60582.88
2023-01-18T08:21:21.400Z,60593.78
2023-01-18T08:23:51.465Z,60591.25
2023-01-18T08:26:19.884Z,60590.06
2023-01-18T08:28:48.306Z,60582.72
2023-01-18T08:31:22.214Z,60596.97
2023-01-18T08:33:51.109Z,60599.22
2023-01-18T08:36:22.042Z,60590.06
2023-01-18T08:38:51.283Z,60582.88
2023-01-18T08:41:20.828Z,60591.91
2023-01-18T08:43:52.454Z,60577.53
2023-01-18T08:46:23.041Z,60600.16
2023-01-18T08:48:52.203Z,60595.50
2023-01-18T08:51:21.923Z,60592.56
2023-01-18T08:53:51.507Z,60599.75
2023-01-18T08:56:20.645Z,60606.81
2023-01-18T08:58:49.136Z,60615.84
2023-01-18T09:01:17.580Z,60615.44
2023-01-18T09:03:48.804Z,60624.63
2023-01-18T09:06:17.693Z,60627.44
2023-01-18T09:08:49.054Z,60633.81
2023-01-18T09:11:18.693Z,60634.88
2023-01-18T09:14:00.369Z,60642.84
2023-01-18T09:16:30.736Z,60649.13
2023-01-18T09:19:01.585Z,60655.53
2023-01-18T09:21:30.117Z,60655.66
2023-01-18T09:23:59.659Z,60666.41
2023-01-18T09:26:30.351Z,60678.94
2023-01-18T09:28:58.873Z,60657.38
2023-01-18T09:31:29.487Z,60677.47
2023-01-18T09:34:17.688Z,60677.06
2023-01-18T09:36:51.358Z,60688.94
2023-01-18T09:39:20.087Z,60677.88
2023-01-18T09:41:53.568Z,60679.19
2023-01-18T09:44:29.915Z,60702.13
2023-01-18T09:47:01.387Z,60676.53
2023-01-18T09:49:37.879Z,60679.19
2023-01-18T09:52:26.481Z,60691.84
2023-01-18T09:55:06.643Z,60709.44
2023-01-18T09:57:59.446Z,60718.63
2023-01-18T10:00:31.120Z,60713.16
2023-01-18T10:03:04.015Z,60689.84
2023-01-18T10:05:36.619Z,60715.16
2023-01-18T10:08:14.870Z,60725.00
2023-01-18T10:11:07.617Z,60737.25
2023-01-18T10:13:48.730Z,60741.41
2023-01-18T10:16:18.066Z,60762.06
2023-01-18T10:18:48.923Z,60765.78
2023-01-18T10:21:29.716Z,60781.78
2023-01-18T10:24:20.154Z,60767.09
2023-01-18T10:26:53.744Z,60788.31
2023-01-18T10:29:37.211Z,60776.44
2023-01-18T10:32:10.527Z,60790.56
2023-01-18T10:34:45.211Z,60791.91
2023-01-18T10:37:18.762Z,60785.78
2023-01-18T10:39:53.204Z,60813.34
2023-01-18T10:42:25.655Z,60820.19
2023-01-18T10:44:53.972Z,60818.16
2023-01-18T10:47:22.447Z,60835.88
2023-01-18T10:49:59.211Z,60842.44
2023-01-18T10:52:30.150Z,60864.44
2023-01-18T10:55:02.344Z,60865.09
2023-01-18T10:57:35.137Z,60856.56
2023-01-18T11:00:12.420Z,60867.22
2023-01-18T11:02:43.857Z,60881.09
2023-01-18T11:05:25.927Z,60892.72
2023-01-18T11:08:13.927Z,60918.47
2023-01-18T11:10:44.595Z,60937.28
2023-01-18T11:13:27.963Z,60910.59
2023-01-18T11:16:12.743Z,60908.19
2023-01-18T11:19:01.303Z,60917.25
2023-01-18T11:21:46.306Z,60917.00
2023-01-18T11:24:18.795Z,60892.19
2023-01-18T11:27:01.717Z,60899.13
2023-01-18T11:29:34.015Z,60888.16
2023-01-18T11:32:06.087Z,60921.81
2023-01-18T11:34:38.046Z,60930.88
2023-01-18T11:37:30.871Z,60945.03
2023-01-18T11:39:59.198Z,60950.63
2023-01-18T11:42:31.738Z,60974.53
2023-01-18T11:45:16.449Z,60953.06
2023-01-18T11:47:57.927Z,60966.66
2023-01-18T11:50:36.893Z,60969.06
2023-01-18T11:53:22.703Z,60965.03
2023-01-18T11:55:56.418Z,60951.16
2023-01-18T11:58:29.452Z,60954.25
2023-01-18T12:01:22.065Z,60931.13
2023-01-18T12:04:02.823Z,60947.19
2023-01-18T12:06:43.790Z,60941.53
2023-01-18T12:09:25.650Z,60956.78
2023-01-18T12:12:18.624Z,60891.91
2023-01-18T12:15:20.885Z,60873.66
2023-01-18T12:18:13.943Z,60909.03
2023-01-18T12:20:52.837Z,60880.03
2023-01-18T12:23:50.239Z,60869.38
2023-01-18T12:26:32.029Z,60884.31
2023-01-18T12:29:36.415Z,60856.56
2023-01-18T12:32:22.909Z,60890.06
2023-01-18T12:35:24.833Z,60898.19
2023-01-18T12:38:02.161Z,60949.56
2023-01-18T12:40:49.013Z,60949.84
2023-01-18T12:43:38.387Z,60969.06
2023-01-18T12:46:11.254Z,60963.31
2023-01-18T12:48:50.888Z,60978.28
2023-01-18T12:51:23.962Z,60991.50
2023-01-18T12:53:58.745Z,61006.81
2023-01-18T12:56:34.142Z,60981.34
2023-01-18T12:59:06.570Z,61001.78
2023-01-18T13:01:42.712Z,60983.63
2023-01-18T13:04:21.590Z,60992.81
2023-01-18T13:06:51.600Z,61006.03
2023-01-18T13:09:24.346Z,60983.09
2023-01-18T13:11:53.141Z,60985.22
2023-01-18T13:14:28.048Z,60977.22
2023-01-18T13:17:04.747Z,60987.88
2023-01-18T13:19:46.829Z,60973.34
2023-01-18T13:22:26.304Z,60967.56
2023-01-18T13:25:23.544Z,60952.63
2023-01-18T13:28:02.091Z,60890.06
2023-01-18T13:30:34.989Z,60900.31
2023-01-18T13:33:14.162Z,60851.88
2023-01-18T13:35:54.103Z,60839.22
2023-01-18T13:38:40.282Z,60829.78
2023-01-18T13:41:12.639Z,60821.75
2023-01-18T13:44:03.395Z,60835.63
2023-01-18T13:46:35.273Z,60846.72
2023-01-18T13:49:38.085Z,60843.88
2023-01-18T13:52:33.611Z,60848.56
2023-01-18T13:55:06.449Z,60841.63
2023-01-18T13:57:36.493Z,60823.50
2023-01-18T14:00:07.602Z,60814.41
2023-01-18T14:02:42.449Z,60806.31
2023-01-18T14:05:25.364Z,60801.50
2023-01-18T14:08:00.394Z,60804.28
2023-01-18T14:10:33.539Z,60812.81
2023-01-18T14:13:04.517Z,60795.38
2023-01-18T14:15:49.517Z,60794.69
2023-01-18T14:18:24.285Z,60795.75
2023-01-18T14:21:15.283Z,60803.63
2023-01-18T14:24:29.875Z,60794.03
2023-01-18T14:26:59.673Z,60796.28
2023-01-18T14:29:36.215Z,60789.78
2023-01-18T14:32:09.085Z,60781.25
2023-01-18T14:34:39.938Z,60789.25
2023-01-18T14:37:31.307Z,60796.06
2023-01-18T14:40:17.644Z,60794.19
2023-01-18T14:42:52.244Z,60797.25
2023-01-18T14:45:27.386Z,60797.50
2023-01-18T14:47:57.658Z,60793.75
2023-01-18T14:50:28.264Z,60784.44
2023-01-18T14:52:56.803Z,60781.50
2023-01-18T14:55:31.741Z,60793.38
2023-01-18T14:58:11.682Z,60784.44
2023-01-18T15:00:50.780Z,60765.91
2023-01-18T15:03:26.301Z,60739.94
2023-01-18T15:06:02.087Z,60736.06
2023-01-18T15:08:34.075Z,60737.00
2023-01-18T15:11:06.177Z,60736.06
2023-01-18T15:13:41.585Z,60727.53
2023-01-18T15:16:10.041Z,60730.47
2023-01-18T15:18:38.522Z,60739.13
2023-01-18T15:21:14.583Z,60745.53
2023-01-18T15:23:43.499Z,60743.13
2023-01-18T15:26:13.213Z,60745.66
2023-01-18T15:28:41.581Z,60757.25
2023-01-18T15:31:15.774Z,60755.91
2023-01-18T15:33:45.148Z,60753.13
2023-01-18T15:36:14.156Z,60747.78
2023-01-18T15:38:42.709Z,60753.53
2023-01-18T15:41:15.073Z,60751.38
2023-01-18T15:43:45.515Z,60748.84
2023-01-18T15:46:16.041Z,60751.66
2023-01-18T15:48:51.793Z,60744.19
2023-01-18T15:51:22.429Z,60739.41
2023-01-18T15:53:56.426Z,60754.31
2023-01-18T15:56:30.863Z,60741.81
2023-01-18T15:59:02.181Z,60739.13
2023-01-18T16:01:35.052Z,60732.88
2023-01-18T16:04:19.142Z,60738.59
2023-01-18T16:06:47.533Z,60740.75
2023-01-18T16:09:23.119Z,60722.88
2023-01-18T16:11:56.950Z,60727.53
2023-01-18T16:14:35.020Z,60742.72
2023-01-18T16:17:07.349Z,60729.25
2023-01-18T16:19:38.072Z,60717.56
2023-01-18T16:22:08.830Z,60712.63
2023-01-18T16:24:41.128Z,60718.22
2023-01-18T16:27:14.484Z,60694.66
2023-01-18T16:29:45.743Z,60694.38
2023-01-18T16:32:27.920Z,60684.00
2023-01-18T16:34:59.980Z,60680.28
2023-01-18T16:37:29.653Z,60687.06
2023-01-18T16:39:58.051Z,60689.31
2023-01-18T16:42:37.507Z,60679.19
2023-01-18T16:45:13.835Z,60695.44
2023-01-18T16:47:42.410Z,60691.19
2023-01-18T16:50:15.844Z,60682.16
2023-01-18T16:52:44.764Z,60671.22
2023-01-18T16:55:14.443Z,60688.53
2023-01-18T16:57:47.759Z,60692.91
2023-01-18T17:00:19.679Z,60680.00
2023-01-18T17:02:48.526Z,60682.16
2023-01-18T17:05:18.192Z,60677.88
2023-01-18T17:07:46.983Z,60669.59
2023-01-18T17:10:23.809Z,60684.25
2023-01-18T17:12:56.603Z,60690.81
2023-01-18T17:15:27.706Z,60697.72
2023-01-18T17:17:56.162Z,60675.88
2023-01-18T17:20:27.294Z,60673.34
2023-01-18T17:23:06.599Z,60679.09
2023-01-18T17:25:35.113Z,60669.34
2023-01-18T17:28:05.194Z,60665.34
2023-01-18T17:30:38.918Z,60663.22
2023-01-18T17:33:07.394Z,60661.09
2023-01-18T17:35:38.789Z,60650.44
2023-01-18T17:38:12.006Z,60647.00
2023-01-18T17:40:50.608Z,60656.19
2023-01-18T17:43:36.558Z,60646.72
2023-01-18T17:46:06.488Z,60642.47
2023-01-18T17:48:35.208Z,60647.00
2023-01-18T17:51:06.840Z,60634.47
2023-01-18T17:53:35.414Z,60635.81
2023-01-18T17:56:08.791Z,60617.97
2023-01-18T17:58:39.128Z,60617.47
2023-01-18T18:01:11.493Z,60617.84
2023-01-18T18:03:41.003Z,60617.59
2023-01-18T18:06:11.136Z,60612.94
2023-01-18T18:08:39.720Z,60605.06
2023-01-18T18:11:09.730Z,60606.53
2023-01-18T18:13:42.080Z,60620.00
2023-01-18T18:16:18.293Z,60623.56
2023-01-18T18:18:47.122Z,60622.53
2023-01-18T18:21:15.734Z,60629.97
2023-01-18T18:23:46.681Z,60639.13
2023-01-18T18:26:15.032Z,60643.81
2023-01-18T18:28:44.778Z,60632.34
2023-01-18T18:31:16.043Z,60633.94
2023-01-18T18:33:44.503Z,60624.63
2023-01-18T18:36:12.947Z,60640.63
2023-01-18T18:38:41.308Z,60627.81
2023-01-18T18:41:10.022Z,60622.09
2023-01-18T18:43:38.428Z,60616.25
2023-01-18T18:46:08.484Z,60602.97
2023-01-18T18:48:36.936Z,60591.91
2023-01-18T18:51:05.542Z,60603.75
2023-01-18T18:53:39.224Z,60592.97
2023-01-18T18:56:10.682Z,60591.78
2023-01-18T18:58:39.896Z,60584.44
2023-01-18T19:01:21.704Z,60584.44
2023-01-18T19:03:50.993Z,60591.25
2023-01-18T19:06:21.701Z,60610.41
2023-01-18T19:08:50.786Z,60598.16
2023-01-18T19:11:19.883Z,60605.06
2023-01-18T19:13:49.657Z,60606.16
2023-01-18T19:16:19.743Z,60617.31
2023-01-18T19:18:48.282Z,60615.97
2023-01-18T19:21:16.766Z,60607.72
2023-01-18T19:23:45.121Z,60618.50
2023-01-18T19:26:13.705Z,60623.56
2023-01-18T19:28:42.200Z,60612.94
2023-01-18T19:31:11.842Z,60615.59
2023-01-18T19:33:41.649Z,60609.72
2023-01-18T19:36:13.265Z,60611.06
2023-01-18T19:38:46.133Z,60603.75
2023-01-18T19:41:15.753Z,60612.94
2023-01-18T19:43:44.558Z,60607.84
2023-01-18T19:46:15.377Z,60607.59
2023-01-18T19:48:45.607Z,60610.81
2023-01-18T19:51:22.485Z,60602.00
2023-01-18T19:53:53.328Z,60594.16
2023-01-18T19:56:22.389Z,60586.59
2023-01-18T19:58:50.845Z,60587.63
2023-01-18T20:01:35.366Z,60588.59
2023-01-18T20:04:07.797Z,60583.41
2023-01-18T20:06:38.723Z,60579.41
2023-01-18T20:09:18.581Z,60577.00
2023-01-18T20:11:48.223Z,60563.19
2023-01-18T20:14:18.340Z,60562.50
2023-01-18T20:16:46.876Z,60570.38
2023-01-18T20:19:19.307Z,60561.47
2023-01-18T20:21:47.989Z,60559.84
2023-01-18T20:24:16.901Z,60544.56
2023-01-18T20:26:45.589Z,60528.47
2023-01-18T20:29:14.087Z,60531.69
2023-01-18T20:31:46.595Z,60535.25
2023-01-18T20:34:20.210Z,60525.94
2023-01-18T20:36:50.173Z,60534.22
2023-01-18T20:39:19.236Z,60524.22
2023-01-18T20:41:48.791Z,60535.25
2023-01-18T20:44:17.536Z,60522.22
2023-01-18T20:46:47.440Z,60533.78
2023-01-18T20:49:16.109Z,60526.19
2023-01-18T20:51:45.846Z,60531.69
2023-01-18T20:54:14.304Z,60533.13
2023-01-18T20:56:42.719Z,60522.63
2023-01-18T20:59:11.148Z,60511.47
2023-01-18T21:01:39.608Z,60510.81
2023-01-18T21:04:08.048Z,60509.88
2023-01-18T21:06:36.569Z,60521.03
2023-01-18T21:09:07.104Z,60521.69
2023-01-18T21:11:35.501Z,60530.22
2023-01-18T21:14:04.109Z,60532.34
2023-01-18T21:16:32.863Z,60521.69
2023-01-18T21:19:01.322Z,60525.84
2023-01-18T21:21:31.873Z,60528.75
2023-01-18T21:24:00.970Z,60522.09
2023-01-18T21:26:30.830Z,60521.69
2023-01-18T21:29:00.129Z,60515.72
2023-01-18T21:31:28.714Z,60511.06
2023-01-18T21:33:57.160Z,60504.84
2023-01-18T21:36:25.607Z,60496.16
2023-01-18T21:38:54.021Z,60485.94
2023-01-18T21:41:40.283Z,60491.28
2023-01-18T21:44:30.179Z,60487.41
2023-01-18T21:46:58.876Z,60486.47
2023-01-18T21:50:15.388Z,60482.38
2023-01-18T21:52:50.703Z,60488.09
2023-01-18T21:55:19.332Z,60487.41
2023-01-18T21:58:08.446Z,60478.91
2023-01-18T22:00:39.879Z,60475.19
2023-01-18T22:03:09.662Z,60450.34
2023-01-18T22:05:40.960Z,60459.78
2023-01-18T22:08:10.361Z,60462.03
2023-01-18T22:10:38.733Z,60462.97
2023-01-18T22:13:07.283Z,60463.63
2023-01-18T22:15:35.749Z,60474.66
2023-01-18T22:18:06.969Z,60464.69
2023-01-18T22:20:35.352Z,60470.69
2023-01-18T22:23:03.693Z,60482.25
2023-01-18T22:25:32.036Z,60474.25
2023-01-18T22:28:00.940Z,60456.59
2023-01-18T22:30:29.663Z,60446.22
2023-01-18T22:32:58.152Z,60435.06
2023-01-18T22:35:27.973Z,60438.78
2023-01-18T22:37:56.708Z,60417.28
2023-01-18T22:40:25.086Z,60397.22
2023-01-18T22:42:53.422Z,60401.22
2023-01-18T22:45:21.788Z,60408.78
2023-01-18T22:47:50.208Z,60437.06
2023-01-18T22:50:19.394Z,60440.25
2023-01-18T22:52:49.149Z,60427.50
2023-01-18T22:55:17.698Z,60435.47
2023-01-18T22:57:46.088Z,60423.91
2023-01-18T23:00:15.750Z,60408.25
2023-01-18T23:02:44.089Z,60418.34
2023-01-18T23:05:12.664Z,60407.59
2023-01-18T23:07:40.971Z,60436.94
2023-01-18T23:10:11.486Z,60430.69
2023-01-18T23:12:39.807Z,60429.75
2023-01-18T23:15:27.772Z,60431.34
2023-01-18T23:17:56.289Z,60449.16
2023-01-18T23:20:24.652Z,60430.28
2023-01-18T23:22:53.059Z,60422.06
2023-01-18T23:25:22.835Z,60427.38
2023-01-18T23:27:51.235Z,60419.00
2023-01-18T23:30:20.298Z,60417.94
2023-01-18T23:32:48.780Z,60419.13
2023-01-18T23:35:17.358Z,60414.91
2023-01-18T23:37:45.636Z,60396.28
2023-01-18T23:40:31.902Z,60400.94
2023-01-18T23:43:19.066Z,60392.72
2023-01-18T23:46:05.190Z,60394.19
2023-01-18T23:48:51.152Z,60417.28
2023-01-18T23:51:37.546Z,60416.88
2023-01-18T23:54:18.759Z,60414.91
2023-01-18T23:56:48.635Z,60396.84
2023-01-18T23:59:18.456Z,60398.41
